createdAt,value
2017-12-10T00:01:19.097Z,2.33
2017-12-10T00:03:47.418Z,1.97
2017-12-10T00:06:15.781Z,1.23
2017-12-10T00:08:44.115Z,2.20
2017-12-10T00:11:12.468Z,2.27
2017-12-10T00:13:40.802Z,2.00
2017-12-10T00:16:09.917Z,1.47
2017-12-10T00:18:38.248Z,1.17
2017-12-10T00:21:06.589Z,1.90
2017-12-10T00:23:34.905Z,1.97
2017-12-10T00:26:03.285Z,1.70
2017-12-10T00:28:31.642Z,1.67
2017-12-10T00:31:00.002Z,1.63
2017-12-10T00:33:28.342Z,1.20
2017-12-10T00:35:57.452Z,1.33
2017-12-10T00:38:26.548Z,1.30
2017-12-10T00:40:55.664Z,2.10
2017-12-10T00:43:24.005Z,1.40
2017-12-10T00:45:52.354Z,2.10
2017-12-10T00:48:20.683Z,1.60
2017-12-10T00:50:49.032Z,1.80
2017-12-10T00:53:17.362Z,1.53
2017-12-10T00:55:45.725Z,1.37
2017-12-10T00:58:14.054Z,1.57
2017-12-10T01:00:42.392Z,2.00
2017-12-10T01:03:10.721Z,1.60
2017-12-10T01:05:39.066Z,1.77
2017-12-10T01:08:07.403Z,2.10
2017-12-10T01:10:36.516Z,1.97
2017-12-10T01:13:04.844Z,1.70
2017-12-10T01:15:33.196Z,1.70
2017-12-10T01:18:01.522Z,1.60
2017-12-10T01:20:30.666Z,1.23
2017-12-10T01:22:59.019Z,1.50
2017-12-10T01:25:28.125Z,1.53
2017-12-10T01:27:57.208Z,2.20
2017-12-10T01:30:25.571Z,1.63
2017-12-10T01:32:53.907Z,1.37
2017-12-10T01:35:22.258Z,1.67
2017-12-10T01:37:50.598Z,1.53
2017-12-10T01:40:18.941Z,2.00
2017-12-10T01:42:47.280Z,1.47
2017-12-10T01:45:16.397Z,1.57
2017-12-10T01:47:44.722Z,1.83
2017-12-10T01:50:13.074Z,1.60
2017-12-10T01:52:41.395Z,1.40
2017-12-10T01:55:09.741Z,1.67
2017-12-10T01:57:38.070Z,1.83
2017-12-10T02:00:07.194Z,2.80
2017-12-10T02:02:35.536Z,2.30
2017-12-10T02:05:04.667Z,2.07
2017-12-10T02:07:32.992Z,2.57
2017-12-10T02:10:01.339Z,2.20
2017-12-10T02:12:29.669Z,1.90
2017-12-10T02:14:58.811Z,1.73
2017-12-10T02:17:27.129Z,1.60
2017-12-10T02:19:55.485Z,2.07
2017-12-10T02:22:23.817Z,1.30
2017-12-10T02:24:52.182Z,1.93
2017-12-10T02:27:20.506Z,1.87
2017-12-10T02:29:48.844Z,1.70
2017-12-10T02:32:17.937Z,1.93
2017-12-10T02:34:46.280Z,2.57
2017-12-10T02:37:14.610Z,2.20
2017-12-10T02:39:43.718Z,1.47
2017-12-10T02:42:12.037Z,2.20
2017-12-10T02:44:40.383Z,2.07
2017-12-10T02:47:08.692Z,2.00
2017-12-10T02:49:37.029Z,2.17
2017-12-10T02:52:05.353Z,1.67
2017-12-10T02:54:33.678Z,1.67
2017-12-10T02:57:02.793Z,1.87
2017-12-10T02:59:31.109Z,1.60
2017-12-10T03:01:59.477Z,2.33
2017-12-10T03:04:27.805Z,2.13
2017-12-10T03:06:56.910Z,2.13
2017-12-10T03:09:26.005Z,1.57
2017-12-10T03:11:55.119Z,1.87
2017-12-10T03:14:23.433Z,1.70
2017-12-10T03:16:51.778Z,2.20
2017-12-10T03:19:20.174Z,2.13
2017-12-10T03:21:48.530Z,1.93
2017-12-10T03:24:16.884Z,1.90
2017-12-10T03:26:45.220Z,2.10
2017-12-10T03:29:13.538Z,1.40
2017-12-10T03:31:41.881Z,2.27
2017-12-10T03:34:10.190Z,1.43
2017-12-10T03:36:38.523Z,1.83
2017-12-10T03:39:06.835Z,1.70
2017-12-10T03:41:35.182Z,1.80
2017-12-10T03:44:03.557Z,2.03
2017-12-10T03:46:32.014Z,2.30
2017-12-10T03:49:01.089Z,1.47
2017-12-10T03:51:30.195Z,1.97
2017-12-10T03:53:59.280Z,1.63
2017-12-10T03:56:27.611Z,2.03
2017-12-10T03:58:55.923Z,1.77
2017-12-10T04:01:24.255Z,1.87
2017-12-10T04:03:52.589Z,1.97
2017-12-10T04:06:20.932Z,1.57
2017-12-10T04:08:49.239Z,1.80
2017-12-10T04:11:17.565Z,1.50
2017-12-10T04:13:45.879Z,1.77
2017-12-10T04:16:14.228Z,1.77
2017-12-10T04:18:42.527Z,1.90
2017-12-10T04:21:10.863Z,1.80
2017-12-10T04:23:40.047Z,2.00
2017-12-10T04:26:10.367Z,1.70
2017-12-10T04:28:38.675Z,2.17
2017-12-10T04:31:07.003Z,2.40
2017-12-10T04:33:35.320Z,1.30
2017-12-10T04:36:04.416Z,1.40
2017-12-10T04:38:33.487Z,2.17
2017-12-10T04:41:01.819Z,1.90
2017-12-10T04:43:30.143Z,1.80
2017-12-10T04:45:58.453Z,2.03
2017-12-10T04:48:26.789Z,1.60
2017-12-10T04:50:55.103Z,1.57
2017-12-10T04:53:23.444Z,1.77
2017-12-10T04:55:51.760Z,1.80
2017-12-10T04:58:20.847Z,1.57
2017-12-10T05:00:49.933Z,1.57
2017-12-10T05:03:18.263Z,1.33
2017-12-10T05:05:46.611Z,1.97
2017-12-10T05:08:15.699Z,1.83
2017-12-10T05:10:44.782Z,1.80
2017-12-10T05:13:13.124Z,1.50
2017-12-10T05:15:41.431Z,1.97
2017-12-10T05:18:09.734Z,1.90
2017-12-10T05:20:38.821Z,1.77
2017-12-10T05:23:07.895Z,1.70
2017-12-10T05:25:36.225Z,1.80
2017-12-10T05:28:04.524Z,1.40
2017-12-10T05:30:32.864Z,2.10
2017-12-10T05:33:01.175Z,1.50
2017-12-10T05:35:29.520Z,1.77
2017-12-10T05:37:58.591Z,1.63
2017-12-10T05:40:26.917Z,1.77
2017-12-10T05:42:55.228Z,1.53
2017-12-10T05:45:23.570Z,1.53
2017-12-10T05:47:51.879Z,1.90
2017-12-10T05:50:20.214Z,1.70
2017-12-10T05:52:48.526Z,2.00
2017-12-10T05:55:16.881Z,1.77
2017-12-10T05:57:45.183Z,1.43
2017-12-10T06:00:15.330Z,1.63
2017-12-10T06:02:43.658Z,1.67
2017-12-10T06:05:11.973Z,1.90
2017-12-10T06:07:40.299Z,1.63
2017-12-10T06:10:08.623Z,1.50
2017-12-10T06:12:37.013Z,2.00
2017-12-10T06:15:05.312Z,1.60
2017-12-10T06:17:33.675Z,2.20
2017-12-10T06:20:01.988Z,2.00
2017-12-10T06:22:31.099Z,2.50
2017-12-10T06:24:59.407Z,2.23
2017-12-10T06:27:27.720Z,1.70
2017-12-10T06:29:56.059Z,1.60
2017-12-10T06:32:24.380Z,2.10
2017-12-10T06:35:09.351Z,1.63
2017-12-10T06:37:37.696Z,2.10
2017-12-10T06:40:06.028Z,2.67
2017-12-10T06:42:35.116Z,2.40
2017-12-10T06:45:04.212Z,2.30
2017-12-10T06:47:33.307Z,3.00
2017-12-10T06:50:02.420Z,1.70
2017-12-10T06:52:30.730Z,2.30
2017-12-10T06:54:59.027Z,2.13
2017-12-10T06:57:27.363Z,2.03
2017-12-10T06:59:55.671Z,1.63
2017-12-10T07:02:23.999Z,1.60
2017-12-10T07:04:53.071Z,1.90
2017-12-10T07:07:21.408Z,1.43
2017-12-10T07:09:49.715Z,1.60
2017-12-10T07:12:18.040Z,3.40
2017-12-10T07:14:46.342Z,2.80
2017-12-10T07:17:14.679Z,2.20
2017-12-10T07:19:43.755Z,2.20
2017-12-10T07:22:12.090Z,1.97
2017-12-10T07:24:40.396Z,2.30
2017-12-10T07:30:09.549Z,1.60
2017-12-10T07:32:37.875Z,1.53
2017-12-10T07:35:06.174Z,1.47
2017-12-10T07:37:34.487Z,1.80
2017-12-10T07:40:03.575Z,2.20
2017-12-10T07:42:32.691Z,1.77
2017-12-10T07:45:01.002Z,1.53
2017-12-10T07:47:29.332Z,1.37
2017-12-10T07:49:58.407Z,1.63
2017-12-10T07:52:26.747Z,1.37
2017-12-10T07:54:55.070Z,1.37
2017-12-10T07:57:23.403Z,1.30
2017-12-10T07:59:51.718Z,1.30
2017-12-10T08:02:20.047Z,1.90
2017-12-10T08:04:48.364Z,1.53
2017-12-10T08:07:16.700Z,1.77
2017-12-10T08:09:45.016Z,1.60
2017-12-10T08:12:13.351Z,1.40
2017-12-10T08:14:41.664Z,1.97
2017-12-10T08:17:10.000Z,1.83
2017-12-10T08:19:38.314Z,1.50
2017-12-10T08:22:06.658Z,1.20
2017-12-10T08:24:34.976Z,1.70
2017-12-10T08:27:03.279Z,1.53
2017-12-10T08:29:31.615Z,1.40
2017-12-10T08:31:59.934Z,1.23
2017-12-10T08:34:28.261Z,1.07
2017-12-10T08:36:56.576Z,1.40
2017-12-10T08:39:24.911Z,0.90
2017-12-10T08:41:53.974Z,1.30
2017-12-10T08:44:22.299Z,1.57
2017-12-10T08:46:50.599Z,1.30
2017-12-10T08:49:18.929Z,1.70
2017-12-10T08:51:48.013Z,1.30
2017-12-10T08:54:16.344Z,1.60
2017-12-10T08:56:44.647Z,1.10
2017-12-10T08:59:12.988Z,4.13
2017-12-10T09:01:41.295Z,2.80
2017-12-10T09:04:09.604Z,1.50
2017-12-10T09:06:37.942Z,1.60
2017-12-10T09:09:06.248Z,1.60
2017-12-10T09:11:34.568Z,1.67
2017-12-10T09:14:02.881Z,1.07
2017-12-10T09:16:31.208Z,1.30
2017-12-10T09:19:00.275Z,1.13
2017-12-10T09:21:28.592Z,1.63
2017-12-10T09:23:57.729Z,1.30
2017-12-10T09:26:26.054Z,1.20
2017-12-10T09:28:54.362Z,1.00
2017-12-10T09:31:22.705Z,1.33
2017-12-10T09:33:51.785Z,1.37
2017-12-10T09:36:20.172Z,1.17
2017-12-10T09:38:48.435Z,1.97
2017-12-10T09:41:16.768Z,1.50
2017-12-10T09:43:45.081Z,1.60
2017-12-10T09:46:13.394Z,2.57
2017-12-10T09:48:41.704Z,2.63
2017-12-10T09:51:10.036Z,1.97
2017-12-10T09:53:38.344Z,1.70
2017-12-10T09:56:07.420Z,1.80
2017-12-10T09:58:36.529Z,1.40
2017-12-10T10:01:05.607Z,1.53
2017-12-10T10:03:33.941Z,1.77
2017-12-10T10:06:02.258Z,2.30
2017-12-10T10:08:30.602Z,1.90
2017-12-10T10:10:58.911Z,2.03
2017-12-10T10:13:27.235Z,2.10
2017-12-10T10:15:55.560Z,1.90
2017-12-10T10:18:23.883Z,2.17
2017-12-10T10:20:52.947Z,3.57
2017-12-10T10:23:21.300Z,1.90
2017-12-10T10:25:49.610Z,1.30
2017-12-10T10:28:17.951Z,1.80
2017-12-10T10:30:46.283Z,1.77
2017-12-10T10:33:14.616Z,2.20
2017-12-10T10:35:42.959Z,2.00
2017-12-10T10:38:11.347Z,2.53
2017-12-10T10:40:39.664Z,1.90
2017-12-10T10:43:08.005Z,2.10
2017-12-10T10:45:36.331Z,2.53
2017-12-10T10:48:04.668Z,2.13
2017-12-10T10:50:32.988Z,2.20
2017-12-10T10:53:01.330Z,2.73
2017-12-10T10:55:29.666Z,1.90
2017-12-10T10:58:05.056Z,2.83
2017-12-10T11:00:33.385Z,2.13
2017-12-10T11:03:03.216Z,3.33
2017-12-10T11:05:32.305Z,2.77
2017-12-10T11:08:01.403Z,3.37
2017-12-10T11:10:29.750Z,3.27
2017-12-10T11:12:58.087Z,3.07
2017-12-10T11:15:26.404Z,3.23
2017-12-10T11:17:54.755Z,2.37
2017-12-10T11:20:23.072Z,3.30
2017-12-10T11:22:51.426Z,4.30
2017-12-10T11:25:19.753Z,4.67
2017-12-10T11:27:48.860Z,4.33
2017-12-10T11:30:17.176Z,4.90
2017-12-10T11:32:45.512Z,4.60
2017-12-10T11:35:14.584Z,3.40
2017-12-10T11:37:42.923Z,3.20
2017-12-10T11:40:11.224Z,4.63
2017-12-10T11:42:39.567Z,5.50
2017-12-10T11:45:07.912Z,5.97
2017-12-10T11:47:36.295Z,4.43
2017-12-10T11:50:05.375Z,4.97
2017-12-10T11:52:33.714Z,5.27
2017-12-10T11:55:02.020Z,4.33
2017-12-10T11:57:30.355Z,3.33
2017-12-10T11:59:58.669Z,3.77
2017-12-10T12:02:26.987Z,3.77
2017-12-10T12:04:56.087Z,3.40
2017-12-10T12:07:24.401Z,2.60
2017-12-10T12:09:52.736Z,4.03
2017-12-10T12:12:21.840Z,3.10
2017-12-10T12:14:50.169Z,4.60
2017-12-10T12:17:18.482Z,3.00
2017-12-10T12:19:47.628Z,3.20
2017-12-10T12:22:15.942Z,2.53
2017-12-10T12:24:44.263Z,2.80
2017-12-10T12:27:12.578Z,3.10
2017-12-10T12:29:40.915Z,2.87
2017-12-10T12:32:09.227Z,1.73
2017-12-10T12:34:37.557Z,2.37
2017-12-10T12:37:06.635Z,1.87
2017-12-10T12:39:34.965Z,2.20
2017-12-10T12:42:03.304Z,2.30
2017-12-10T12:44:31.693Z,2.07
2017-12-10T12:47:00.058Z,1.53
2017-12-10T12:49:29.152Z,1.40
2017-12-10T12:51:57.610Z,1.93
2017-12-10T12:54:25.919Z,1.60
2017-12-10T12:56:54.249Z,1.60
2017-12-10T12:59:22.587Z,1.20
2017-12-10T13:01:50.930Z,1.57
2017-12-10T13:04:19.244Z,0.97
2017-12-10T13:07:02.312Z,1.20
2017-12-10T13:09:30.620Z,1.07
2017-12-10T13:12:07.301Z,1.10
2017-12-10T13:14:35.607Z,0.90
2017-12-10T13:17:04.704Z,1.60
2017-12-10T13:19:33.015Z,1.33
2017-12-10T13:22:01.331Z,1.10
2017-12-10T13:24:29.644Z,1.23
2017-12-10T13:26:57.963Z,1.50
2017-12-10T13:29:26.277Z,1.10
2017-12-10T13:31:55.384Z,0.90
2017-12-10T13:34:24.455Z,1.37
2017-12-10T13:36:52.779Z,1.10
2017-12-10T13:39:21.096Z,1.37
2017-12-10T13:41:49.403Z,1.70
2017-12-10T13:44:18.509Z,0.97
2017-12-10T13:46:47.582Z,1.23
2017-12-10T13:49:15.908Z,1.10
2017-12-10T13:51:44.224Z,1.20
2017-12-10T13:54:12.568Z,1.10
2017-12-10T13:56:40.877Z,1.20
2017-12-10T13:59:09.195Z,1.60
2017-12-10T14:01:38.271Z,1.20
2017-12-10T14:04:06.600Z,1.40
2017-12-10T14:06:34.912Z,1.40
2017-12-10T14:09:03.249Z,1.37
2017-12-10T14:11:31.568Z,1.10
2017-12-10T14:13:59.944Z,1.13
2017-12-10T14:16:28.257Z,1.77
2017-12-10T14:18:56.579Z,1.07
2017-12-10T14:21:24.887Z,1.13
2017-12-10T14:23:53.235Z,1.27
2017-12-10T14:26:21.548Z,1.27
2017-12-10T14:28:49.873Z,0.90
2017-12-10T14:31:18.184Z,1.20
2017-12-10T14:33:46.519Z,1.00
2017-12-10T14:36:14.842Z,1.13
2017-12-10T14:38:43.179Z,1.07
2017-12-10T14:41:11.488Z,1.53
2017-12-10T14:43:39.819Z,1.17
2017-12-10T14:46:08.892Z,1.10
2017-12-10T14:48:38.733Z,1.40
2017-12-10T14:51:07.816Z,1.10
2017-12-10T14:53:36.150Z,1.00
2017-12-10T14:56:04.463Z,16.33
2017-12-10T14:58:33.581Z,16.50
2017-12-10T15:01:02.671Z,2.50
2017-12-10T15:03:31.773Z,2.00
2017-12-10T15:06:00.100Z,1.73
2017-12-10T15:08:28.443Z,1.60
2017-12-10T15:10:56.768Z,1.60
2017-12-10T15:13:25.093Z,1.70
2017-12-10T15:15:54.171Z,2.50
2017-12-10T15:18:23.276Z,2.00
2017-12-10T15:20:51.583Z,1.80
2017-12-10T15:23:19.921Z,1.53
2017-12-10T15:25:48.234Z,1.83
2017-12-10T15:28:16.563Z,1.60
2017-12-10T15:30:44.905Z,2.10
2017-12-10T15:33:14.288Z,1.90
2017-12-10T15:35:42.657Z,1.70
2017-12-10T15:38:11.719Z,2.17
2017-12-10T15:40:40.053Z,2.13
2017-12-10T15:43:08.370Z,2.23
2017-12-10T15:45:36.695Z,2.20
2017-12-10T15:48:05.016Z,2.37
2017-12-10T15:50:33.372Z,2.40
2017-12-10T15:53:01.697Z,2.50
2017-12-10T15:55:33.595Z,2.83
2017-12-10T15:58:01.904Z,3.10
2017-12-10T16:00:30.233Z,2.47
2017-12-10T16:02:59.316Z,2.87
2017-12-10T16:05:27.647Z,3.17
2017-12-10T16:07:55.960Z,2.70
2017-12-10T16:10:24.308Z,3.07
2017-12-10T16:12:52.630Z,2.90
2017-12-10T16:15:20.939Z,2.63
2017-12-10T16:17:49.286Z,2.93
2017-12-10T16:20:17.613Z,2.43
2017-12-10T16:22:45.979Z,3.30
2017-12-10T16:25:14.283Z,2.90
2017-12-10T16:27:42.852Z,2.93
2017-12-10T16:30:11.191Z,3.30
2017-12-10T16:32:39.537Z,3.20
2017-12-10T16:35:07.864Z,3.67
2017-12-10T16:37:36.973Z,3.47
2017-12-10T16:40:05.286Z,3.70
2017-12-10T16:42:33.633Z,3.93
2017-12-10T16:45:02.810Z,4.17
2017-12-10T16:47:31.160Z,4.93
2017-12-10T16:49:59.476Z,5.20
2017-12-10T16:52:27.799Z,4.77
2017-12-10T16:54:56.171Z,5.30
2017-12-10T16:57:24.535Z,5.87
2017-12-10T16:59:52.874Z,5.90
2017-12-10T17:02:21.230Z,5.80
2017-12-10T17:04:49.928Z,4.50
2017-12-10T17:07:18.505Z,6.00
2017-12-10T17:09:46.877Z,4.70
2017-12-10T17:12:15.795Z,4.30
2017-12-10T17:14:44.905Z,4.07
2017-12-10T17:17:14.037Z,4.30
2017-12-10T17:19:42.400Z,5.30
2017-12-10T17:22:10.720Z,4.80
2017-12-10T17:24:39.213Z,4.87
2017-12-10T17:27:08.381Z,4.17
2017-12-10T17:29:36.691Z,3.23
2017-12-10T17:32:05.027Z,2.93
2017-12-10T17:34:33.494Z,3.60
2017-12-10T17:37:01.830Z,3.07
2017-12-10T17:39:30.141Z,2.80
2017-12-10T17:41:59.248Z,2.70
2017-12-10T17:44:27.550Z,3.70
2017-12-10T17:46:55.872Z,3.23
2017-12-10T17:49:24.188Z,3.00
2017-12-10T17:51:52.560Z,3.40
2017-12-10T17:54:20.889Z,3.60
2017-12-10T17:56:49.330Z,3.40
2017-12-10T17:59:17.677Z,3.40
2017-12-10T18:01:46.835Z,4.03
2017-12-10T18:04:15.174Z,3.80
2017-12-10T18:06:44.158Z,4.60
2017-12-10T18:09:12.546Z,4.63
2017-12-10T18:11:40.890Z,4.57
2017-12-10T18:14:09.265Z,5.00
2017-12-10T18:16:37.725Z,4.60
2017-12-10T18:19:06.102Z,4.60
2017-12-10T18:21:34.429Z,4.10
2017-12-10T18:24:03.571Z,5.50
2017-12-10T18:26:31.892Z,5.00
2017-12-10T18:29:00.229Z,4.87
2017-12-10T18:31:28.552Z,4.90
2017-12-10T18:33:56.904Z,4.90
2017-12-10T18:36:25.200Z,4.80
2017-12-10T18:38:53.510Z,5.10
2017-12-10T18:41:22.582Z,4.20
2017-12-10T18:43:51.696Z,5.07
2017-12-10T18:46:20.038Z,4.13
2017-12-10T18:48:48.362Z,5.13
2017-12-10T18:51:16.712Z,4.80
2017-12-10T18:53:45.833Z,3.70
2017-12-10T18:56:14.923Z,3.90
2017-12-10T18:58:43.273Z,4.40
2017-12-10T19:01:11.608Z,3.40
2017-12-10T19:03:39.946Z,4.30
2017-12-10T19:06:09.044Z,3.77
2017-12-10T19:08:38.413Z,3.60
2017-12-10T19:11:06.765Z,3.43
2017-12-10T19:13:36.170Z,3.07
2017-12-10T19:16:08.076Z,3.60
2017-12-10T19:18:36.446Z,2.90
2017-12-10T19:21:04.780Z,3.20
2017-12-10T19:23:33.134Z,2.63
2017-12-10T19:26:02.223Z,2.80
2017-12-10T19:28:31.337Z,2.47
2017-12-10T19:31:00.444Z,2.00
2017-12-10T19:33:29.544Z,2.33
2017-12-10T19:35:57.864Z,2.23
2017-12-10T19:38:26.221Z,2.30
2017-12-10T19:40:54.545Z,1.80
2017-12-10T19:43:23.023Z,2.23
2017-12-10T19:45:51.335Z,2.10
2017-12-10T19:48:19.680Z,1.70
2017-12-10T19:50:48.056Z,1.53
2017-12-10T19:53:16.408Z,2.20
2017-12-10T19:55:44.732Z,1.70
2017-12-10T19:58:13.098Z,2.20
2017-12-10T20:00:41.464Z,1.87
2017-12-10T20:03:10.559Z,1.90
2017-12-10T20:05:38.897Z,2.20
2017-12-10T20:08:07.210Z,1.97
2017-12-10T20:10:35.541Z,2.13
2017-12-10T20:13:03.907Z,1.90
2017-12-10T20:15:33.084Z,1.73
2017-12-10T20:18:02.189Z,1.20
2017-12-10T20:20:31.309Z,1.73
2017-12-10T20:23:00.390Z,2.37
2017-12-10T20:25:29.501Z,1.60
2017-12-10T20:27:57.838Z,1.90
2017-12-10T20:30:26.213Z,1.67
2017-12-10T20:32:54.624Z,1.50
2017-12-10T20:35:23.761Z,1.37
2017-12-10T20:37:52.118Z,1.77
2017-12-10T20:40:23.165Z,2.20
2017-12-10T20:42:52.213Z,1.60
2017-12-10T20:45:23.437Z,1.60
2017-12-10T20:47:51.779Z,1.50
2017-12-10T20:50:20.886Z,1.97
2017-12-10T20:52:49.965Z,2.50
2017-12-10T20:55:19.172Z,1.60
2017-12-10T20:57:48.261Z,1.10
2017-12-10T21:00:20.160Z,1.50
2017-12-10T21:02:48.476Z,1.70
2017-12-10T21:05:16.866Z,1.70
2017-12-10T21:07:45.176Z,1.27
2017-12-10T21:10:13.533Z,1.30
2017-12-10T21:12:41.852Z,1.10
2017-12-10T21:15:10.199Z,1.10
2017-12-10T21:17:39.292Z,1.23
2017-12-10T21:20:08.451Z,2.03
2017-12-10T21:22:36.768Z,1.10
2017-12-10T21:25:05.869Z,1.17
2017-12-10T21:27:34.932Z,1.30
2017-12-10T21:30:03.264Z,1.10
2017-12-10T21:32:31.577Z,1.00
2017-12-10T21:34:59.923Z,1.57
2017-12-10T21:37:28.237Z,1.00
2017-12-10T21:39:56.572Z,1.10
2017-12-10T21:42:24.905Z,1.20
2017-12-10T21:44:53.315Z,0.90
2017-12-10T21:47:22.392Z,1.03
2017-12-10T21:49:50.719Z,0.90
2017-12-10T21:52:19.032Z,1.20
2017-12-10T21:54:47.384Z,1.23
2017-12-10T21:57:15.703Z,0.93
2017-12-10T21:59:44.034Z,1.10
2017-12-10T22:02:12.380Z,0.90
2017-12-10T22:04:41.494Z,1.50
2017-12-10T22:07:09.886Z,1.20
2017-12-10T22:09:38.228Z,1.40
2017-12-10T22:12:06.589Z,1.20
2017-12-10T22:14:34.936Z,1.50
2017-12-10T22:17:04.039Z,1.00
2017-12-10T22:19:32.374Z,1.90
2017-12-10T22:22:01.485Z,1.40
2017-12-10T22:24:29.828Z,1.20
2017-12-10T22:26:58.978Z,1.00
2017-12-10T22:29:27.287Z,1.10
2017-12-10T22:31:55.703Z,0.90
2017-12-10T22:34:23.980Z,1.80
2017-12-10T22:36:53.091Z,1.27
2017-12-10T22:39:21.440Z,1.03
2017-12-10T22:41:50.556Z,0.80
2017-12-10T22:44:19.655Z,1.20
2017-12-10T22:46:48.748Z,1.00
2017-12-10T22:49:17.852Z,0.80
2017-12-10T22:51:46.938Z,0.87
2017-12-10T22:54:15.257Z,1.00
2017-12-10T22:56:43.581Z,0.93
2017-12-10T22:59:11.885Z,1.00
2017-12-10T23:01:41.001Z,1.10
2017-12-10T23:04:09.303Z,0.80
2017-12-10T23:06:37.646Z,0.80
2017-12-10T23:09:06.711Z,0.70
2017-12-10T23:11:35.012Z,1.20
2017-12-10T23:14:04.884Z,0.77
2017-12-10T23:16:33.190Z,0.70
2017-12-10T23:19:01.514Z,0.90
2017-12-10T23:21:29.810Z,0.80
2017-12-10T23:23:58.120Z,1.00
2017-12-10T23:26:26.428Z,1.17
2017-12-10T23:28:54.751Z,1.00
2017-12-10T23:31:23.042Z,1.00
2017-12-10T23:33:51.364Z,1.33
2017-12-10T23:36:19.687Z,0.90
2017-12-10T23:38:47.998Z,0.70
2017-12-10T23:41:16.328Z,0.60
2017-12-10T23:43:44.639Z,0.90
2017-12-10T23:46:12.956Z,1.00
2017-12-10T23:48:41.257Z,1.20
2017-12-10T23:51:09.613Z,1.00
2017-12-10T23:53:37.923Z,0.70
2017-12-10T23:56:06.253Z,0.97
2017-12-10T23:58:35.313Z,0.90
